Terminal Aerodrome Forecast
Issued by NWS Quad Cities IA IL

Current Version | Previous Version | Text Only | Print | Product List | Glossary On
Versions: 1 2 3 4 5 6 7 8 9 10 11 12 13 14 15 16 17 18 19 20
000
FTUS43 KDVN 251730
TAFMLI
TAF
KMLI 251730Z 2518/2618 22015G23KT P6SM SCT025 BKN040
     FM252300 21010KT P6SM SCT040 BKN250
     FM260900 18007KT P6SM BKN150
     FM261500 20008KT P6SM VCSH BKN050=

USA.gov is the U.S. government's official web portal to all federal, state and local government web resources and services.